sensor_id;sensor_type;location;lat;lon;timestamp;temperature;humidity
43991;DHT22;29654;50.784;20.604;2022-12-28T00:02:05;8.30;57.40
43991;DHT22;29654;50.784;20.604;2022-12-28T00:07:07;8.30;57.60
43991;DHT22;29654;50.784;20.604;2022-12-28T00:12:10;8.20;57.50
43991;DHT22;29654;50.784;20.604;2022-12-28T00:17:14;8.20;57.50
43991;DHT22;29654;50.784;20.604;2022-12-28T00:22:17;8.20;57.40
43991;DHT22;29654;50.784;20.604;2022-12-28T00:27:19;8.10;57.30
43991;DHT22;29654;50.784;20.604;2022-12-28T00:32:23;8.10;57.40
43991;DHT22;29654;50.784;20.604;2022-12-28T00:37:27;8.10;57.50
43991;DHT22;29654;50.784;20.604;2022-12-28T00:42:30;8.00;57.50
43991;DHT22;29654;50.784;20.604;2022-12-28T00:47:34;8.00;57.40
43991;DHT22;29654;50.784;20.604;2022-12-28T00:52:36;7.90;57.30
43991;DHT22;29654;50.784;20.604;2022-12-28T00:57:39;7.80;57.20
43991;DHT22;29654;50.784;20.604;2022-12-28T01:02:43;7.80;57.20
43991;DHT22;29654;50.784;20.604;2022-12-28T01:07:46;7.70;57.20
43991;DHT22;29654;50.784;20.604;2022-12-28T01:12:48;7.60;57.30
43991;DHT22;29654;50.784;20.604;2022-12-28T01:17:52;7.50;57.50
43991;DHT22;29654;50.784;20.604;2022-12-28T01:22:55;7.50;57.60
43991;DHT22;29654;50.784;20.604;2022-12-28T01:27:57;7.50;57.70
43991;DHT22;29654;50.784;20.604;2022-12-28T01:33:01;7.40;57.80
43991;DHT22;29654;50.784;20.604;2022-12-28T01:38:04;7.50;58.00
43991;DHT22;29654;50.784;20.604;2022-12-28T01:43:11;7.50;58.20
43991;DHT22;29654;50.784;20.604;2022-12-28T01:48:21;7.50;58.30
43991;DHT22;29654;50.784;20.604;2022-12-28T01:53:25;7.60;58.30
43991;DHT22;29654;50.784;20.604;2022-12-28T01:58:29;7.60;58.20
43991;DHT22;29654;50.784;20.604;2022-12-28T02:03:34;7.70;58.20
43991;DHT22;29654;50.784;20.604;2022-12-28T02:08:39;7.70;58.20
43991;DHT22;29654;50.784;20.604;2022-12-28T02:13:46;7.70;58.10
43991;DHT22;29654;50.784;20.604;2022-12-28T02:18:53;7.70;58.20
43991;DHT22;29654;50.784;20.604;2022-12-28T02:24:22;7.70;58.20
43991;DHT22;29654;50.784;20.604;2022-12-28T02:30:00;7.80;58.40
43991;DHT22;29654;50.784;20.604;2022-12-28T02:35:07;7.90;58.40
43991;DHT22;29654;50.784;20.604;2022-12-28T02:40:14;7.90;58.40
43991;DHT22;29654;50.784;20.604;2022-12-28T02:45:32;8.00;58.30
43991;DHT22;29654;50.784;20.604;2022-12-28T02:51:08;8.00;58.10
43991;DHT22;29654;50.784;20.604;2022-12-28T02:56:23;8.00;57.90
43991;DHT22;29654;50.784;20.604;2022-12-28T03:02:10;8.00;57.70
43991;DHT22;29654;50.784;20.604;2022-12-28T03:07:26;7.90;57.30
43991;DHT22;29654;50.784;20.604;2022-12-28T03:12:51;7.80;57.30
43991;DHT22;29654;50.784;20.604;2022-12-28T03:18:03;7.70;57.20
43991;DHT22;29654;50.784;20.604;2022-12-28T03:23:27;7.60;57.10
43991;DHT22;29654;50.784;20.604;2022-12-28T03:28:48;7.40;57.10
43991;DHT22;29654;50.784;20.604;2022-12-28T03:34:14;7.30;57.10
43991;DHT22;29654;50.784;20.604;2022-12-28T03:39:27;7.20;57.10
43991;DHT22;29654;50.784;20.604;2022-12-28T03:44:34;7.10;57.20
43991;DHT22;29654;50.784;20.604;2022-12-28T03:49:39;7.00;57.20
43991;DHT22;29654;50.784;20.604;2022-12-28T03:54:42;6.90;57.20
43991;DHT22;29654;50.784;20.604;2022-12-28T03:59:47;6.80;57.20
43991;DHT22;29654;50.784;20.604;2022-12-28T04:04:51;6.70;57.40
43991;DHT22;29654;50.784;20.604;2022-12-28T04:09:54;6.70;57.40
43991;DHT22;29654;50.784;20.604;2022-12-28T04:14:56;6.60;57.40
43991;DHT22;29654;50.784;20.604;2022-12-28T04:20:00;6.50;57.30
43991;DHT22;29654;50.784;20.604;2022-12-28T04:25:04;6.40;57.30
43991;DHT22;29654;50.784;20.604;2022-12-28T04:30:09;6.30;57.40
43991;DHT22;29654;50.784;20.604;2022-12-28T04:35:14;6.20;57.50
43991;DHT22;29654;50.784;20.604;2022-12-28T04:40:22;6.20;57.60
43991;DHT22;29654;50.784;20.604;2022-12-28T04:45:25;6.20;57.70
43991;DHT22;29654;50.784;20.604;2022-12-28T04:50:29;6.10;57.70
43991;DHT22;29654;50.784;20.604;2022-12-28T04:55:33;6.10;57.80
43991;DHT22;29654;50.784;20.604;2022-12-28T05:00:35;6.10;57.90
43991;DHT22;29654;50.784;20.604;2022-12-28T05:05:39;6.00;57.70
43991;DHT22;29654;50.784;20.604;2022-12-28T05:10:42;6.00;57.70
43991;DHT22;29654;50.784;20.604;2022-12-28T05:15:44;6.00;57.70
43991;DHT22;29654;50.784;20.604;2022-12-28T05:20:48;5.90;57.70
43991;DHT22;29654;50.784;20.604;2022-12-28T05:25:52;5.90;57.70
43991;DHT22;29654;50.784;20.604;2022-12-28T05:30:58;5.80;57.60
43991;DHT22;29654;50.784;20.604;2022-12-28T05:36:03;5.80;57.80
43991;DHT22;29654;50.784;20.604;2022-12-28T05:41:08;5.70;57.80
43991;DHT22;29654;50.784;20.604;2022-12-28T05:46:14;5.70;57.90
43991;DHT22;29654;50.784;20.604;2022-12-28T05:51:22;5.70;57.90
43991;DHT22;29654;50.784;20.604;2022-12-28T05:56:28;5.70;58.00
43991;DHT22;29654;50.784;20.604;2022-12-28T06:01:33;5.70;58.00
43991;DHT22;29654;50.784;20.604;2022-12-28T06:06:39;5.70;58.10
43991;DHT22;29654;50.784;20.604;2022-12-28T06:11:41;5.70;58.10
43991;DHT22;29654;50.784;20.604;2022-12-28T06:16:45;5.80;58.20
43991;DHT22;29654;50.784;20.604;2022-12-28T06:21:49;5.80;58.20
43991;DHT22;29654;50.784;20.604;2022-12-28T06:26:52;5.80;58.70
43991;DHT22;29654;50.784;20.604;2022-12-28T06:31:54;5.80;58.00
43991;DHT22;29654;50.784;20.604;2022-12-28T06:37:01;5.80;58.10
43991;DHT22;29654;50.784;20.604;2022-12-28T06:42:04;5.80;57.80
43991;DHT22;29654;50.784;20.604;2022-12-28T06:47:06;5.70;57.90
43991;DHT22;29654;50.784;20.604;2022-12-28T06:52:10;5.70;57.80
43991;DHT22;29654;50.784;20.604;2022-12-28T06:57:13;5.60;57.90
43991;DHT22;29654;50.784;20.604;2022-12-28T07:02:16;5.60;58.00
43991;DHT22;29654;50.784;20.604;2022-12-28T07:07:20;5.50;58.00
43991;DHT22;29654;50.784;20.604;2022-12-28T07:12:23;5.50;58.00
43991;DHT22;29654;50.784;20.604;2022-12-28T07:17:26;5.50;58.00
43991;DHT22;29654;50.784;20.604;2022-12-28T07:22:30;5.50;58.00
43991;DHT22;29654;50.784;20.604;2022-12-28T07:27:33;5.50;58.10
43991;DHT22;29654;50.784;20.604;2022-12-28T07:32:37;5.50;58.20
43991;DHT22;29654;50.784;20.604;2022-12-28T07:37:42;5.60;58.30
43991;DHT22;29654;50.784;20.604;2022-12-28T07:42:46;5.60;58.50
43991;DHT22;29654;50.784;20.604;2022-12-28T07:47:48;5.70;58.60
43991;DHT22;29654;50.784;20.604;2022-12-28T07:52:52;5.80;59.30
43991;DHT22;29654;50.784;20.604;2022-12-28T07:57:54;5.90;58.80
43991;DHT22;29654;50.784;20.604;2022-12-28T08:02:57;6.00;58.90
43991;DHT22;29654;50.784;20.604;2022-12-28T08:08:01;6.20;59.20
43991;DHT22;29654;50.784;20.604;2022-12-28T08:13:03;6.40;59.40
43991;DHT22;29654;50.784;20.604;2022-12-28T08:18:06;6.60;59.50
43991;DHT22;29654;50.784;20.604;2022-12-28T08:23:10;6.80;59.50
43991;DHT22;29654;50.784;20.604;2022-12-28T08:28:13;7.00;59.50
43991;DHT22;29654;50.784;20.604;2022-12-28T08:33:15;7.20;59.40
43991;DHT22;29654;50.784;20.604;2022-12-28T08:38:19;7.40;59.40
43991;DHT22;29654;50.784;20.604;2022-12-28T08:43:22;7.60;59.20
43991;DHT22;29654;50.784;20.604;2022-12-28T08:48:25;7.80;59.10
43991;DHT22;29654;50.784;20.604;2022-12-28T08:53:29;8.00;58.90
43991;DHT22;29654;50.784;20.604;2022-12-28T08:58:32;8.20;58.80
43991;DHT22;29654;50.784;20.604;2022-12-28T09:03:35;8.30;58.70
43991;DHT22;29654;50.784;20.604;2022-12-28T09:08:39;8.50;58.60
43991;DHT22;29654;50.784;20.604;2022-12-28T09:13:42;8.70;58.50
43991;DHT22;29654;50.784;20.604;2022-12-28T09:18:45;8.80;58.40
43991;DHT22;29654;50.784;20.604;2022-12-28T09:23:49;9.00;58.30
43991;DHT22;29654;50.784;20.604;2022-12-28T09:28:53;9.20;58.30
43991;DHT22;29654;50.784;20.604;2022-12-28T09:33:57;9.40;58.20
43991;DHT22;29654;50.784;20.604;2022-12-28T09:39:03;9.60;58.00
43991;DHT22;29654;50.784;20.604;2022-12-28T09:44:26;9.80;57.70
43991;DHT22;29654;50.784;20.604;2022-12-28T09:49:41;9.90;57.40
43991;DHT22;29654;50.784;20.604;2022-12-28T09:54:48;10.10;57.10
43991;DHT22;29654;50.784;20.604;2022-12-28T09:59:51;10.20;57.10
43991;DHT22;29654;50.784;20.604;2022-12-28T10:04:54;10.30;57.10
43991;DHT22;29654;50.784;20.604;2022-12-28T10:09:58;10.40;56.90
43991;DHT22;29654;50.784;20.604;2022-12-28T10:15:04;10.50;56.80
43991;DHT22;29654;50.784;20.604;2022-12-28T10:20:14;10.60;56.70
43991;DHT22;29654;50.784;20.604;2022-12-28T10:25:21;10.70;56.20
43991;DHT22;29654;50.784;20.604;2022-12-28T10:30:26;10.80;56.30
43991;DHT22;29654;50.784;20.604;2022-12-28T10:35:34;10.80;56.20
43991;DHT22;29654;50.784;20.604;2022-12-28T10:40:41;10.80;55.90
43991;DHT22;29654;50.784;20.604;2022-12-28T10:45:46;10.90;55.90
43991;DHT22;29654;50.784;20.604;2022-12-28T10:50:52;10.90;55.90
43991;DHT22;29654;50.784;20.604;2022-12-28T10:56:14;10.90;55.80
43991;DHT22;29654;50.784;20.604;2022-12-28T11:01:26;11.00;55.40
43991;DHT22;29654;50.784;20.604;2022-12-28T11:06:31;10.90;55.50
43991;DHT22;29654;50.784;20.604;2022-12-28T11:11:35;11.00;55.70
43991;DHT22;29654;50.784;20.604;2022-12-28T11:16:39;11.00;55.60
43991;DHT22;29654;50.784;20.604;2022-12-28T11:21:42;11.00;55.60
43991;DHT22;29654;50.784;20.604;2022-12-28T11:26:48;11.00;55.60
43991;DHT22;29654;50.784;20.604;2022-12-28T11:31:55;11.10;55.30
43991;DHT22;29654;50.784;20.604;2022-12-28T11:37:01;11.10;55.10
43991;DHT22;29654;50.784;20.604;2022-12-28T11:42:07;11.10;55.40
43991;DHT22;29654;50.784;20.604;2022-12-28T11:47:21;11.10;55.20
43991;DHT22;29654;50.784;20.604;2022-12-28T11:52:45;11.10;54.90
43991;DHT22;29654;50.784;20.604;2022-12-28T11:57:49;11.10;54.70
43991;DHT22;29654;50.784;20.604;2022-12-28T12:02:52;11.10;55.10
43991;DHT22;29654;50.784;20.604;2022-12-28T12:07:56;11.10;55.10
43991;DHT22;29654;50.784;20.604;2022-12-28T12:13:02;11.10;55.00
43991;DHT22;29654;50.784;20.604;2022-12-28T12:18:25;11.10;55.00
43991;DHT22;29654;50.784;20.604;2022-12-28T12:23:36;11.10;55.20
43991;DHT22;29654;50.784;20.604;2022-12-28T12:28:44;11.20;55.00
43991;DHT22;29654;50.784;20.604;2022-12-28T12:33:49;11.20;55.10
43991;DHT22;29654;50.784;20.604;2022-12-28T12:44:38;11.30;54.80
43991;DHT22;29654;50.784;20.604;2022-12-28T12:55:41;11.30;54.30
43991;DHT22;29654;50.784;20.604;2022-12-28T13:01:16;11.30;54.60
43991;DHT22;29654;50.784;20.604;2022-12-28T13:06:24;11.30;54.20
43991;DHT22;29654;50.784;20.604;2022-12-28T13:11:30;11.20;54.70
43991;DHT22;29654;50.784;20.604;2022-12-28T13:16:38;11.20;54.70
43991;DHT22;29654;50.784;20.604;2022-12-28T13:21:42;11.20;54.60
43991;DHT22;29654;50.784;20.604;2022-12-28T13:26:45;11.20;54.60
43991;DHT22;29654;50.784;20.604;2022-12-28T13:31:49;11.20;54.60
43991;DHT22;29654;50.784;20.604;2022-12-28T13:36:54;11.20;54.50
43991;DHT22;29654;50.784;20.604;2022-12-28T13:41:59;11.20;54.50
43991;DHT22;29654;50.784;20.604;2022-12-28T13:47:12;11.20;54.50
43991;DHT22;29654;50.784;20.604;2022-12-28T13:52:21;11.20;54.20
43991;DHT22;29654;50.784;20.604;2022-12-28T13:57:27;11.20;54.40
43991;DHT22;29654;50.784;20.604;2022-12-28T14:02:34;11.10;54.30
43991;DHT22;29654;50.784;20.604;2022-12-28T14:07:37;11.10;54.20
43991;DHT22;29654;50.784;20.604;2022-12-28T14:12:40;11.10;54.30
43991;DHT22;29654;50.784;20.604;2022-12-28T14:17:45;11.10;54.30
43991;DHT22;29654;50.784;20.604;2022-12-28T14:22:48;11.00;54.10
43991;DHT22;29654;50.784;20.604;2022-12-28T14:27:56;11.00;54.20
43991;DHT22;29654;50.784;20.604;2022-12-28T14:33:04;10.90;54.00
43991;DHT22;29654;50.784;20.604;2022-12-28T14:38:16;10.80;54.00
43991;DHT22;29654;50.784;20.604;2022-12-28T14:43:23;10.80;54.10
43991;DHT22;29654;50.784;20.604;2022-12-28T14:48:35;10.70;54.00
43991;DHT22;29654;50.784;20.604;2022-12-28T14:53:43;10.60;53.90
43991;DHT22;29654;50.784;20.604;2022-12-28T14:58:48;10.50;54.00
43991;DHT22;29654;50.784;20.604;2022-12-28T15:03:56;10.50;54.10
43991;DHT22;29654;50.784;20.604;2022-12-28T15:09:00;10.40;54.00
43991;DHT22;29654;50.784;20.604;2022-12-28T15:14:06;10.30;54.20
43991;DHT22;29654;50.784;20.604;2022-12-28T15:19:10;10.20;54.20
43991;DHT22;29654;50.784;20.604;2022-12-28T15:24:13;10.10;54.20
43991;DHT22;29654;50.784;20.604;2022-12-28T15:29:16;10.00;54.30
43991;DHT22;29654;50.784;20.604;2022-12-28T15:34:20;9.90;54.40
43991;DHT22;29654;50.784;20.604;2022-12-28T15:39:23;9.90;54.40
43991;DHT22;29654;50.784;20.604;2022-12-28T15:44:26;9.80;54.60
43991;DHT22;29654;50.784;20.604;2022-12-28T15:49:31;9.70;54.60
43991;DHT22;29654;50.784;20.604;2022-12-28T15:54:33;9.70;54.50
43991;DHT22;29654;50.784;20.604;2022-12-28T15:59:36;9.60;54.60
43991;DHT22;29654;50.784;20.604;2022-12-28T16:04:40;9.50;54.70
43991;DHT22;29654;50.784;20.604;2022-12-28T16:09:42;9.50;54.80
43991;DHT22;29654;50.784;20.604;2022-12-28T16:14:45;9.50;54.90
43991;DHT22;29654;50.784;20.604;2022-12-28T16:19:50;9.50;54.90
43991;DHT22;29654;50.784;20.604;2022-12-28T16:24:53;9.50;55.10
43991;DHT22;29654;50.784;20.604;2022-12-28T16:29:55;9.40;55.10
43991;DHT22;29654;50.784;20.604;2022-12-28T16:35:00;9.50;55.30
43991;DHT22;29654;50.784;20.604;2022-12-28T16:40:04;9.40;55.20
43991;DHT22;29654;50.784;20.604;2022-12-28T16:45:09;9.40;55.20
43991;DHT22;29654;50.784;20.604;2022-12-28T16:50:15;9.50;55.20
43991;DHT22;29654;50.784;20.604;2022-12-28T16:55:18;9.40;55.20
43991;DHT22;29654;50.784;20.604;2022-12-28T17:00:21;9.40;55.30
43991;DHT22;29654;50.784;20.604;2022-12-28T17:05:25;9.40;55.30
43991;DHT22;29654;50.784;20.604;2022-12-28T17:10:28;9.40;55.30
43991;DHT22;29654;50.784;20.604;2022-12-28T17:15:31;9.50;55.30
43991;DHT22;29654;50.784;20.604;2022-12-28T17:20:36;9.40;55.30
43991;DHT22;29654;50.784;20.604;2022-12-28T17:25:39;9.50;55.30
43991;DHT22;29654;50.784;20.604;2022-12-28T17:30:43;9.50;55.30
43991;DHT22;29654;50.784;20.604;2022-12-28T17:35:47;9.50;55.40
43991;DHT22;29654;50.784;20.604;2022-12-28T17:40:49;9.50;55.40
43991;DHT22;29654;50.784;20.604;2022-12-28T17:45:52;9.50;55.40
43991;DHT22;29654;50.784;20.604;2022-12-28T17:50:56;9.50;55.40
43991;DHT22;29654;50.784;20.604;2022-12-28T17:56:00;9.60;55.40
43991;DHT22;29654;50.784;20.604;2022-12-28T18:01:03;9.60;55.40
43991;DHT22;29654;50.784;20.604;2022-12-28T18:06:08;9.60;55.30
43991;DHT22;29654;50.784;20.604;2022-12-28T18:11:11;9.70;55.30
43991;DHT22;29654;50.784;20.604;2022-12-28T18:16:16;9.70;55.30
43991;DHT22;29654;50.784;20.604;2022-12-28T18:21:22;9.80;55.30
43991;DHT22;29654;50.784;20.604;2022-12-28T18:26:26;9.80;55.30
43991;DHT22;29654;50.784;20.604;2022-12-28T18:31:28;9.90;55.30
43991;DHT22;29654;50.784;20.604;2022-12-28T18:36:32;9.90;55.40
43991;DHT22;29654;50.784;20.604;2022-12-28T18:41:35;10.00;55.30
43991;DHT22;29654;50.784;20.604;2022-12-28T18:46:37;10.00;55.30
43991;DHT22;29654;50.784;20.604;2022-12-28T18:51:42;10.10;55.10
43991;DHT22;29654;50.784;20.604;2022-12-28T18:56:44;10.10;54.90
43991;DHT22;29654;50.784;20.604;2022-12-28T19:01:47;10.10;54.80
43991;DHT22;29654;50.784;20.604;2022-12-28T19:06:51;10.10;54.70
43991;DHT22;29654;50.784;20.604;2022-12-28T19:11:53;10.10;54.60
43991;DHT22;29654;50.784;20.604;2022-12-28T19:16:56;10.00;54.60
43991;DHT22;29654;50.784;20.604;2022-12-28T19:22:00;10.00;54.60
43991;DHT22;29654;50.784;20.604;2022-12-28T19:27:02;10.00;54.70
43991;DHT22;29654;50.784;20.604;2022-12-28T19:32:05;9.90;54.70
43991;DHT22;29654;50.784;20.604;2022-12-28T19:37:09;9.90;54.80
43991;DHT22;29654;50.784;20.604;2022-12-28T19:42:12;9.80;54.80
43991;DHT22;29654;50.784;20.604;2022-12-28T19:47:14;9.80;54.90
43991;DHT22;29654;50.784;20.604;2022-12-28T19:52:18;9.80;54.80
43991;DHT22;29654;50.784;20.604;2022-12-28T19:57:21;9.70;54.80
43991;DHT22;29654;50.784;20.604;2022-12-28T20:02:23;9.60;54.80
43991;DHT22;29654;50.784;20.604;2022-12-28T20:07:27;9.60;54.80
43991;DHT22;29654;50.784;20.604;2022-12-28T20:12:30;9.50;54.80
43991;DHT22;29654;50.784;20.604;2022-12-28T20:17:33;9.40;54.80
43991;DHT22;29654;50.784;20.604;2022-12-28T20:22:40;9.30;54.80
43991;DHT22;29654;50.784;20.604;2022-12-28T20:27:42;9.30;54.80
43991;DHT22;29654;50.784;20.604;2022-12-28T20:32:45;9.10;54.80
43991;DHT22;29654;50.784;20.604;2022-12-28T20:37:49;9.00;54.80
43991;DHT22;29654;50.784;20.604;2022-12-28T20:42:51;8.90;54.80
43991;DHT22;29654;50.784;20.604;2022-12-28T20:48:12;8.80;55.00
43991;DHT22;29654;50.784;20.604;2022-12-28T20:53:16;8.70;55.00
43991;DHT22;29654;50.784;20.604;2022-12-28T20:58:19;8.60;55.10
43991;DHT22;29654;50.784;20.604;2022-12-28T21:03:21;8.50;55.20
43991;DHT22;29654;50.784;20.604;2022-12-28T21:08:26;8.50;55.40
43991;DHT22;29654;50.784;20.604;2022-12-28T21:13:29;8.40;55.40
43991;DHT22;29654;50.784;20.604;2022-12-28T21:18:32;8.40;55.40
43991;DHT22;29654;50.784;20.604;2022-12-28T21:23:38;8.30;55.50
43991;DHT22;29654;50.784;20.604;2022-12-28T21:28:41;8.30;55.50
43991;DHT22;29654;50.784;20.604;2022-12-28T21:33:44;8.20;55.60
43991;DHT22;29654;50.784;20.604;2022-12-28T21:38:48;8.20;55.60
43991;DHT22;29654;50.784;20.604;2022-12-28T21:43:50;8.10;55.60
43991;DHT22;29654;50.784;20.604;2022-12-28T21:48:53;8.10;55.70
43991;DHT22;29654;50.784;20.604;2022-12-28T21:53:57;8.10;55.70
43991;DHT22;29654;50.784;20.604;2022-12-28T21:59:00;8.10;55.70
43991;DHT22;29654;50.784;20.604;2022-12-28T22:04:04;8.00;55.60
43991;DHT22;29654;50.784;20.604;2022-12-28T22:09:26;8.00;55.80
43991;DHT22;29654;50.784;20.604;2022-12-28T22:14:46;8.00;55.80
43991;DHT22;29654;50.784;20.604;2022-12-28T22:19:49;7.90;55.70
43991;DHT22;29654;50.784;20.604;2022-12-28T22:24:53;7.90;55.80
43991;DHT22;29654;50.784;20.604;2022-12-28T22:29:55;7.90;55.80
43991;DHT22;29654;50.784;20.604;2022-12-28T22:34:58;7.90;55.80
43991;DHT22;29654;50.784;20.604;2022-12-28T22:40:03;7.90;55.90
43991;DHT22;29654;50.784;20.604;2022-12-28T22:45:08;7.90;55.90
43991;DHT22;29654;50.784;20.604;2022-12-28T22:50:13;7.90;55.90
43991;DHT22;29654;50.784;20.604;2022-12-28T22:55:19;7.90;55.80
43991;DHT22;29654;50.784;20.604;2022-12-28T23:00:22;7.90;55.80
43991;DHT22;29654;50.784;20.604;2022-12-28T23:05:24;7.90;55.80
43991;DHT22;29654;50.784;20.604;2022-12-28T23:10:28;7.80;55.80
43991;DHT22;29654;50.784;20.604;2022-12-28T23:15:31;7.80;55.70
43991;DHT22;29654;50.784;20.604;2022-12-28T23:20:33;7.90;55.80
43991;DHT22;29654;50.784;20.604;2022-12-28T23:26:01;7.90;55.80
43991;DHT22;29654;50.784;20.604;2022-12-28T23:31:20;7.90;55.70
43991;DHT22;29654;50.784;20.604;2022-12-28T23:36:23;7.90;55.80
43991;DHT22;29654;50.784;20.604;2022-12-28T23:41:27;7.90;55.80
43991;DHT22;29654;50.784;20.604;2022-12-28T23:46:48;7.90;55.70
43991;DHT22;29654;50.784;20.604;2022-12-28T23:51:52;7.90;55.70
43991;DHT22;29654;50.784;20.604;2022-12-28T23:56:56;8.00;55.70
